createdAt,value
2018-12-09T00:00:50.053Z,0.70
2018-12-09T00:03:19.022Z,0.80
2018-12-09T00:05:47.677Z,0.90
2018-12-09T00:08:16.390Z,0.80
2018-12-09T00:10:45.483Z,0.70
2018-12-09T00:13:14.050Z,0.60
2018-12-09T00:15:42.842Z,0.80
2018-12-09T00:18:11.369Z,0.60
2018-12-09T00:20:39.982Z,0.60
2018-12-09T00:23:08.521Z,0.80
2018-12-09T00:25:37.074Z,0.67
2018-12-09T00:28:05.742Z,0.70
2018-12-09T00:30:34.422Z,0.60
2018-12-09T00:33:03.058Z,0.70
2018-12-09T00:35:31.702Z,0.70
2018-12-09T00:38:00.318Z,0.63
2018-12-09T00:40:28.954Z,0.70
2018-12-09T00:42:57.488Z,0.70
2018-12-09T00:45:26.042Z,0.70
2018-12-09T00:47:54.562Z,0.63
2018-12-09T00:50:23.234Z,0.70
2018-12-09T00:52:51.782Z,0.50
2018-12-09T00:55:20.332Z,1.00
2018-12-09T00:57:48.859Z,0.50
2018-12-09T01:00:17.443Z,0.80
2018-12-09T01:02:46.002Z,0.70
2018-12-09T01:05:14.546Z,0.60
2018-12-09T01:07:43.094Z,0.80
2018-12-09T01:10:11.754Z,1.00
2018-12-09T01:12:40.299Z,0.60
2018-12-09T01:15:08.981Z,0.50
2018-12-09T01:17:37.561Z,3.50
2018-12-09T01:20:07.642Z,0.80
2018-12-09T01:22:36.178Z,0.70
2018-12-09T01:25:04.965Z,0.50
2018-12-09T01:27:34.007Z,0.50
2018-12-09T01:30:02.550Z,0.90
2018-12-09T01:32:31.229Z,1.00
2018-12-09T01:34:59.757Z,0.40
2018-12-09T01:37:28.326Z,0.57
2018-12-09T01:39:56.874Z,1.63
2018-12-09T01:42:25.527Z,0.47
2018-12-09T01:44:54.079Z,0.60
2018-12-09T01:47:22.612Z,0.90
2018-12-09T01:49:51.553Z,1.43
2018-12-09T01:52:20.076Z,0.60
2018-12-09T01:54:48.617Z,0.70
2018-12-09T01:57:17.181Z,0.60
2018-12-09T01:59:45.710Z,1.40
2018-12-09T02:02:14.263Z,0.43
2018-12-09T02:04:42.809Z,0.50
2018-12-09T02:07:11.469Z,0.50
2018-12-09T02:09:40.018Z,0.50
2018-12-09T02:12:09.038Z,0.30
2018-12-09T02:14:37.597Z,0.57
2018-12-09T02:17:06.406Z,0.43
2018-12-09T02:19:34.987Z,0.57
2018-12-09T02:22:03.582Z,0.40
2018-12-09T02:24:32.146Z,0.50
2018-12-09T02:27:00.694Z,0.50
2018-12-09T02:29:29.247Z,0.40
2018-12-09T02:31:57.778Z,0.60
2018-12-09T02:34:26.309Z,0.50
2018-12-09T02:36:54.842Z,0.50
2018-12-09T02:39:23.392Z,0.60
2018-12-09T02:41:52.197Z,0.60
2018-12-09T02:44:21.038Z,0.50
2018-12-09T02:46:49.559Z,0.70
2018-12-09T02:49:18.100Z,0.50
2018-12-09T02:51:46.768Z,0.50
2018-12-09T02:54:15.554Z,0.50
2018-12-09T02:56:44.098Z,0.50
2018-12-09T02:59:12.659Z,0.53
2018-12-09T03:01:41.201Z,0.60
2018-12-09T03:04:09.855Z,0.50
2018-12-09T03:06:38.722Z,0.70
2018-12-09T03:09:09.359Z,1.07
2018-12-09T03:11:38.052Z,0.83
2018-12-09T03:14:06.640Z,0.60
2018-12-09T03:16:35.226Z,0.70
2018-12-09T03:19:03.799Z,0.67
2018-12-09T03:21:32.339Z,0.63
2018-12-09T03:24:00.868Z,0.60
2018-12-09T03:26:29.546Z,0.50
2018-12-09T03:28:58.331Z,0.90
2018-12-09T03:31:26.892Z,0.90
2018-12-09T03:33:55.431Z,0.50
2018-12-09T03:36:23.983Z,0.67
2018-12-09T03:38:52.643Z,0.43
2018-12-09T03:41:21.195Z,0.60
2018-12-09T03:43:49.733Z,0.90
2018-12-09T03:46:18.529Z,0.70
2018-12-09T03:48:47.310Z,0.80
2018-12-09T03:51:15.885Z,0.70
2018-12-09T03:53:44.739Z,0.60
2018-12-09T03:56:13.301Z,0.60
2018-12-09T03:58:41.814Z,0.60
2018-12-09T04:01:10.342Z,0.60
2018-12-09T04:03:39.208Z,0.60
2018-12-09T04:06:07.768Z,0.70
2018-12-09T04:08:36.313Z,0.40
2018-12-09T04:11:04.855Z,0.40
2018-12-09T04:13:33.403Z,0.50
2018-12-09T04:16:01.929Z,0.70
2018-12-09T04:18:30.460Z,0.60
2018-12-09T04:20:59.084Z,0.70
2018-12-09T04:23:27.657Z,0.63
2018-12-09T04:25:56.215Z,0.67
2018-12-09T04:28:24.766Z,0.60
2018-12-09T04:30:53.287Z,0.50
2018-12-09T04:33:22.042Z,0.53
2018-12-09T04:35:50.611Z,0.60
2018-12-09T04:38:19.481Z,0.70
2018-12-09T04:40:48.034Z,0.70
2018-12-09T04:43:16.735Z,0.87
2018-12-09T04:45:45.291Z,0.90
2018-12-09T04:48:13.811Z,0.70
2018-12-09T04:50:42.345Z,0.80
2018-12-09T04:53:11.242Z,0.70
2018-12-09T04:55:40.139Z,0.50
2018-12-09T04:58:08.798Z,0.50
2018-12-09T05:00:48.786Z,0.70
2018-12-09T05:03:17.445Z,0.60
2018-12-09T05:05:46.034Z,0.70
2018-12-09T05:08:14.695Z,0.80
2018-12-09T05:10:43.675Z,1.13
2018-12-09T05:13:12.248Z,0.60
2018-12-09T05:15:40.803Z,0.77
2018-12-09T05:18:09.362Z,0.70
2018-12-09T05:20:37.923Z,0.80
2018-12-09T05:23:06.477Z,1.00
2018-12-09T05:25:35.046Z,0.70
2018-12-09T05:28:03.566Z,0.77
2018-12-09T05:30:32.205Z,0.60
2018-12-09T05:33:00.739Z,1.03
2018-12-09T05:35:29.273Z,0.60
2018-12-09T05:37:57.833Z,0.40
2018-12-09T05:40:26.345Z,0.60
2018-12-09T05:42:54.914Z,0.60
2018-12-09T05:45:23.759Z,0.87
2018-12-09T05:47:52.318Z,0.70
2018-12-09T05:50:20.898Z,0.90
2018-12-09T05:52:49.434Z,0.50
2018-12-09T05:55:17.974Z,0.60
2018-12-09T05:57:46.866Z,0.87
2018-12-09T06:00:15.526Z,0.90
2018-12-09T06:02:53.849Z,1.17
2018-12-09T06:05:22.670Z,0.80
2018-12-09T06:07:51.685Z,0.70
2018-12-09T06:10:20.382Z,0.77
2018-12-09T06:12:48.945Z,0.80
2018-12-09T06:15:17.499Z,1.53
2018-12-09T06:17:46.050Z,0.70
2018-12-09T06:20:14.730Z,0.83
2018-12-09T06:22:43.273Z,0.70
2018-12-09T06:25:11.836Z,0.60
2018-12-09T06:27:40.367Z,0.77
2018-12-09T06:30:10.600Z,0.40
2018-12-09T06:32:39.350Z,0.70
2018-12-09T06:35:08.573Z,0.40
2018-12-09T06:37:37.082Z,0.70
2018-12-09T06:40:06.547Z,0.60
2018-12-09T06:42:35.409Z,0.77
2018-12-09T06:45:04.538Z,0.50
2018-12-09T06:47:33.090Z,0.80
2018-12-09T06:50:01.649Z,0.60
2018-12-09T06:52:30.201Z,0.53
2018-12-09T06:54:59.086Z,0.90
2018-12-09T06:57:27.654Z,0.87
2018-12-09T06:59:56.385Z,1.17
2018-12-09T07:02:24.977Z,0.97
2018-12-09T07:04:54.082Z,0.60
2018-12-09T07:07:22.952Z,0.70
2018-12-09T07:09:51.515Z,0.90
2018-12-09T07:12:20.054Z,1.00
2018-12-09T07:14:48.594Z,0.90
2018-12-09T07:17:17.141Z,1.17
2018-12-09T07:19:45.990Z,1.47
2018-12-09T07:22:14.579Z,1.20
2018-12-09T07:24:43.101Z,1.17
2018-12-09T07:27:11.706Z,1.03
2018-12-09T07:29:40.446Z,1.10
2018-12-09T07:32:09.969Z,1.13
2018-12-09T07:34:38.531Z,1.40
2018-12-09T07:37:07.107Z,1.10
2018-12-09T07:39:35.714Z,0.93
2018-12-09T07:42:04.349Z,1.13
2018-12-09T07:44:33.354Z,1.63
2018-12-09T07:47:01.925Z,1.00
2018-12-09T07:49:30.478Z,1.40
2018-12-09T07:51:59.035Z,1.27
2018-12-09T07:54:27.611Z,1.33
2018-12-09T07:56:56.171Z,1.30
2018-12-09T07:59:24.730Z,7.83
2018-12-09T08:01:53.330Z,1.77
2018-12-09T08:04:21.921Z,1.90
2018-12-09T08:06:50.785Z,1.50
2018-12-09T08:09:19.302Z,1.40
2018-12-09T08:11:47.874Z,1.30
2018-12-09T08:14:16.419Z,5.40
2018-12-09T08:16:44.966Z,1.43
2018-12-09T08:19:13.533Z,1.53
2018-12-09T08:21:42.064Z,2.10
2018-12-09T08:24:10.914Z,1.13
2018-12-09T08:26:39.566Z,1.70
2018-12-09T08:29:08.069Z,1.60
2018-12-09T08:31:36.611Z,1.27
2018-12-09T08:34:05.190Z,1.37
2018-12-09T08:36:33.718Z,1.73
2018-12-09T08:39:02.255Z,1.30
2018-12-09T08:41:30.833Z,1.40
2018-12-09T08:43:59.391Z,1.70
2018-12-09T08:46:27.966Z,1.47
2018-12-09T08:48:56.510Z,1.83
2018-12-09T08:51:25.102Z,1.50
2018-12-09T08:53:53.637Z,1.90
2018-12-09T08:56:22.343Z,2.70
2018-12-09T08:58:50.957Z,2.60
2018-12-09T09:01:19.570Z,11.30
2018-12-09T09:03:48.190Z,3.57
2018-12-09T09:06:16.710Z,2.20
2018-12-09T09:08:45.580Z,1.83
2018-12-09T09:11:14.183Z,5.33
2018-12-09T09:13:43.042Z,2.40
2018-12-09T09:16:11.697Z,1.90
2018-12-09T09:18:40.420Z,1.40
2018-12-09T09:21:09.069Z,1.50
2018-12-09T09:23:37.779Z,1.50
2018-12-09T09:26:06.463Z,1.57
2018-12-09T09:28:35.030Z,1.67
2018-12-09T09:31:03.690Z,1.77
2018-12-09T09:33:32.294Z,2.30
2018-12-09T09:36:00.897Z,2.23
2018-12-09T09:38:29.474Z,4.07
2018-12-09T09:40:58.030Z,2.10
2018-12-09T09:43:26.625Z,2.00
2018-12-09T09:45:55.185Z,2.20
2018-12-09T09:48:23.717Z,1.80
2018-12-09T09:50:52.269Z,1.93
2018-12-09T09:53:20.846Z,1.60
2018-12-09T09:55:49.462Z,2.00
2018-12-09T09:58:18.338Z,2.90
2018-12-09T10:00:46.885Z,2.00
2018-12-09T10:03:15.627Z,2.23
2018-12-09T10:05:44.237Z,2.00
2018-12-09T10:08:12.892Z,2.77
2018-12-09T10:10:41.534Z,2.73
2018-12-09T10:13:10.122Z,2.13
2018-12-09T10:15:38.667Z,2.10
2018-12-09T10:18:07.214Z,2.27
2018-12-09T10:20:35.742Z,2.30
2018-12-09T10:23:04.330Z,2.23
2018-12-09T10:25:32.862Z,2.10
2018-12-09T10:28:01.507Z,2.33
2018-12-09T10:30:30.016Z,2.47
2018-12-09T10:32:58.627Z,2.73
2018-12-09T10:35:27.218Z,3.50
2018-12-09T10:37:55.799Z,3.83
2018-12-09T10:40:24.785Z,2.83
2018-12-09T10:42:53.342Z,2.40
2018-12-09T10:45:21.977Z,2.13
2018-12-09T10:47:50.498Z,2.73
2018-12-09T10:50:19.102Z,2.37
2018-12-09T10:52:47.682Z,1.90
2018-12-09T10:55:16.334Z,4.40
2018-12-09T10:57:44.854Z,2.27
2018-12-09T11:00:19.445Z,2.57
2018-12-09T11:02:48.238Z,1.57
2018-12-09T11:05:16.781Z,2.03
2018-12-09T11:07:45.422Z,2.13
2018-12-09T11:10:14.102Z,1.87
2018-12-09T11:12:42.858Z,2.17
2018-12-09T11:15:11.406Z,2.27
2018-12-09T11:17:39.985Z,3.30
2018-12-09T11:20:08.725Z,2.90
2018-12-09T11:22:37.316Z,2.40
2018-12-09T11:25:06.249Z,2.30
2018-12-09T11:27:34.782Z,3.17
2018-12-09T11:30:05.301Z,3.13
2018-12-09T11:32:33.863Z,3.40
2018-12-09T11:35:02.470Z,2.73
2018-12-09T11:37:31.126Z,3.00
2018-12-09T11:39:59.683Z,2.50
2018-12-09T11:42:28.350Z,2.37
2018-12-09T11:44:56.954Z,2.57
2018-12-09T11:47:25.506Z,2.83
2018-12-09T11:49:54.026Z,2.50
2018-12-09T11:52:22.827Z,1.53
2018-12-09T11:54:51.450Z,2.67
2018-12-09T11:57:20.325Z,1.87
2018-12-09T11:59:51.146Z,2.40
2018-12-09T12:02:20.148Z,2.57
2018-12-09T12:04:49.104Z,2.60
2018-12-09T12:07:17.643Z,2.80
2018-12-09T12:09:46.196Z,2.73
2018-12-09T12:12:14.715Z,2.57
2018-12-09T12:14:43.330Z,1.80
2018-12-09T12:17:11.838Z,2.90
2018-12-09T12:19:40.373Z,2.33
2018-12-09T12:22:08.929Z,1.90
2018-12-09T12:24:37.763Z,2.47
2018-12-09T12:27:06.344Z,1.90
2018-12-09T12:29:34.890Z,2.90
2018-12-09T12:32:03.457Z,2.27
2018-12-09T12:34:32.076Z,1.67
2018-12-09T12:37:00.670Z,2.37
2018-12-09T12:39:29.314Z,2.30
2018-12-09T12:41:57.904Z,2.57
2018-12-09T12:44:26.658Z,2.57
2018-12-09T12:46:55.311Z,2.33
2018-12-09T12:49:24.562Z,3.03
2018-12-09T12:51:53.527Z,2.53
2018-12-09T12:54:22.146Z,2.30
2018-12-09T12:56:50.769Z,2.43
2018-12-09T12:59:19.356Z,2.60
2018-12-09T13:01:48.087Z,3.13
2018-12-09T13:04:16.761Z,2.80
2018-12-09T13:06:45.551Z,2.37
2018-12-09T13:09:14.739Z,2.37
2018-12-09T13:11:43.313Z,3.63
2018-12-09T13:14:11.895Z,3.53
2018-12-09T13:16:40.426Z,3.10
2018-12-09T13:19:09.230Z,3.97
2018-12-09T13:21:38.106Z,3.30
2018-12-09T13:24:06.630Z,4.10
2018-12-09T13:26:35.329Z,3.00
2018-12-09T13:29:03.984Z,3.50
2018-12-09T13:31:32.511Z,3.40
2018-12-09T13:34:01.315Z,2.50
2018-12-09T13:36:30.250Z,2.60
2018-12-09T13:38:58.786Z,2.30
2018-12-09T13:41:27.320Z,2.77
2018-12-09T13:43:55.853Z,3.07
2018-12-09T13:46:24.414Z,2.57
2018-12-09T13:48:52.978Z,3.00
2018-12-09T13:51:21.531Z,3.50
2018-12-09T13:53:50.082Z,5.03
2018-12-09T13:56:18.853Z,3.27
2018-12-09T13:58:47.394Z,3.83
2018-12-09T14:01:15.933Z,2.47
2018-12-09T14:03:45.069Z,2.40
2018-12-09T14:06:13.618Z,3.50
2018-12-09T14:08:42.184Z,3.33
2018-12-09T14:11:10.682Z,2.43
2018-12-09T14:13:39.254Z,2.80
2018-12-09T14:16:07.908Z,2.07
2018-12-09T14:18:38.406Z,2.33
2018-12-09T14:21:07.350Z,1.47
2018-12-09T14:23:35.862Z,3.33
2018-12-09T14:26:04.816Z,2.00
2018-12-09T14:28:33.449Z,1.47
2018-12-09T14:31:02.445Z,1.37
2018-12-09T14:33:31.242Z,1.47
2018-12-09T14:35:59.914Z,1.27
2018-12-09T14:38:28.444Z,1.10
2018-12-09T14:40:56.997Z,1.40
2018-12-09T14:43:25.507Z,1.70
2018-12-09T14:45:54.366Z,1.80
2018-12-09T14:48:22.906Z,1.00
2018-12-09T14:50:51.504Z,1.53
2018-12-09T14:53:20.338Z,1.40
2018-12-09T14:55:48.889Z,1.40
2018-12-09T14:58:18.476Z,0.90
2018-12-09T15:00:47.034Z,1.23
2018-12-09T15:03:15.562Z,1.47
2018-12-09T15:05:44.126Z,1.90
2018-12-09T15:08:13.057Z,1.80
2018-12-09T15:10:41.842Z,1.40
2018-12-09T15:13:10.422Z,1.33
2018-12-09T15:15:38.987Z,1.40
2018-12-09T15:18:07.794Z,1.30
2018-12-09T15:20:36.415Z,1.70
2018-12-09T15:23:05.039Z,5.63
2018-12-09T15:25:33.598Z,1.50
2018-12-09T15:28:02.154Z,2.07
2018-12-09T15:30:30.673Z,3.50
2018-12-09T15:32:59.294Z,2.70
2018-12-09T15:35:27.839Z,1.90
2018-12-09T15:37:56.419Z,1.53
2018-12-09T15:40:24.959Z,1.50
2018-12-09T15:42:53.496Z,2.03
2018-12-09T15:45:22.206Z,2.08
2018-12-09T15:47:50.740Z,2.33
2018-12-09T15:50:19.354Z,2.50
2018-12-09T15:52:47.928Z,1.80
2018-12-09T15:55:16.515Z,2.63
2018-12-09T15:57:45.102Z,1.80
2018-12-09T16:00:14.054Z,3.53
2018-12-09T16:02:42.651Z,3.40
2018-12-09T16:05:11.202Z,2.80
2018-12-09T16:07:39.781Z,2.20
2018-12-09T16:10:09.919Z,1.90
2018-12-09T16:12:38.498Z,1.53
2018-12-09T16:15:07.194Z,1.40
2018-12-09T16:17:35.795Z,1.50
2018-12-09T16:20:05.306Z,1.40
2018-12-09T16:22:33.937Z,1.30
2018-12-09T16:25:02.490Z,1.60
2018-12-09T16:27:31.026Z,2.87
2018-12-09T16:29:59.573Z,2.33
2018-12-09T16:32:28.247Z,3.30
2018-12-09T16:34:56.906Z,1.42
2018-12-09T16:37:25.831Z,2.00
2018-12-09T16:39:54.525Z,1.47
2018-12-09T16:42:23.124Z,1.30
2018-12-09T16:44:51.697Z,2.97
2018-12-09T16:47:20.282Z,1.53
2018-12-09T16:49:48.910Z,1.53
2018-12-09T16:52:17.512Z,1.37
2018-12-09T16:54:46.172Z,1.60
2018-12-09T16:57:14.739Z,1.37
2018-12-09T16:59:43.383Z,1.40
2018-12-09T17:02:12.003Z,2.03
2018-12-09T17:04:40.849Z,1.67
2018-12-09T17:07:09.421Z,2.07
2018-12-09T17:09:37.955Z,1.43
2018-12-09T17:12:07.229Z,5.40
2018-12-09T17:14:35.877Z,3.97
2018-12-09T17:17:04.473Z,3.40
2018-12-09T17:19:33.269Z,1.83
2018-12-09T17:22:01.990Z,4.60
2018-12-09T17:24:30.679Z,3.30
2018-12-09T17:26:59.730Z,7.97
2018-12-09T17:29:28.457Z,5.87
2018-12-09T17:31:58.050Z,3.80
2018-12-09T17:34:26.723Z,4.13
2018-12-09T17:36:55.317Z,1.73
2018-12-09T17:39:24.342Z,2.80
2018-12-09T17:41:53.099Z,1.63
2018-12-09T17:44:22.390Z,1.40
2018-12-09T17:46:51.164Z,1.53
2018-12-09T17:49:20.001Z,1.70
2018-12-09T17:51:49.214Z,2.40
2018-12-09T17:54:17.788Z,1.17
2018-12-09T17:56:46.393Z,1.23
2018-12-09T17:59:15.041Z,1.47
2018-12-09T18:01:43.914Z,1.37
2018-12-09T18:04:12.643Z,1.77
2018-12-09T18:06:41.366Z,1.50
2018-12-09T18:09:09.924Z,1.33
2018-12-09T18:11:38.663Z,1.50
2018-12-09T18:14:08.050Z,1.30
2018-12-09T18:16:36.633Z,1.67
2018-12-09T18:19:05.300Z,1.60
2018-12-09T18:21:35.710Z,2.67
2018-12-09T18:24:04.590Z,2.10
2018-12-09T18:26:33.130Z,1.47
2018-12-09T18:29:01.670Z,1.77
2018-12-09T18:31:30.550Z,1.60
2018-12-09T18:33:59.741Z,1.73
2018-12-09T18:36:28.676Z,1.73
2018-12-09T18:38:57.345Z,1.63
2018-12-09T18:41:26.141Z,1.50
2018-12-09T18:43:55.297Z,1.83
2018-12-09T18:46:23.939Z,2.27
2018-12-09T18:48:53.224Z,1.90
2018-12-09T18:51:21.937Z,1.80
2018-12-09T18:53:50.498Z,2.03
2018-12-09T18:56:19.177Z,2.10
2018-12-09T18:58:47.730Z,2.00
2018-12-09T19:01:16.481Z,2.27
2018-12-09T19:03:45.059Z,1.90
2018-12-09T19:06:13.867Z,2.20
2018-12-09T19:08:42.780Z,1.27
2018-12-09T19:11:11.331Z,1.77
2018-12-09T19:13:39.879Z,1.83
2018-12-09T19:16:09.647Z,1.97
2018-12-09T19:18:38.234Z,2.40
2018-12-09T19:21:06.786Z,1.93
2018-12-09T19:23:35.325Z,2.00
2018-12-09T19:26:04.025Z,1.30
2018-12-09T19:28:32.591Z,2.40
2018-12-09T19:31:01.181Z,1.90
2018-12-09T19:33:29.694Z,2.10
2018-12-09T19:35:58.218Z,2.17
2018-12-09T19:38:26.785Z,2.00
2018-12-09T19:40:55.310Z,2.00
2018-12-09T19:43:23.878Z,1.87
2018-12-09T19:45:52.430Z,1.63
2018-12-09T19:48:20.974Z,1.87
2018-12-09T19:50:49.553Z,1.70
2018-12-09T19:53:18.407Z,2.20
2018-12-09T19:55:46.944Z,1.80
2018-12-09T19:58:15.477Z,1.97
2018-12-09T20:00:44.029Z,1.90
2018-12-09T20:03:12.774Z,1.73
2018-12-09T20:05:41.326Z,2.20
2018-12-09T20:08:09.875Z,1.90
2018-12-09T20:10:38.398Z,1.67
2018-12-09T20:13:06.918Z,1.60
2018-12-09T20:15:35.641Z,1.90
2018-12-09T20:18:04.301Z,1.60
2018-12-09T20:20:32.853Z,1.73
2018-12-09T20:23:01.459Z,1.73
2018-12-09T20:25:30.152Z,1.33
2018-12-09T20:27:58.700Z,1.70
2018-12-09T20:30:27.302Z,1.80
2018-12-09T20:32:55.813Z,2.37
2018-12-09T20:35:24.355Z,2.70
2018-12-09T20:37:52.886Z,2.13
2018-12-09T20:40:21.442Z,2.10
2018-12-09T20:42:49.992Z,2.43
2018-12-09T20:45:18.510Z,3.40
2018-12-09T20:47:47.230Z,1.70
2018-12-09T20:50:15.770Z,1.77
2018-12-09T20:52:44.894Z,1.00
2018-12-09T20:55:13.418Z,1.17
2018-12-09T20:57:41.947Z,1.50
2018-12-09T21:00:10.618Z,1.23
2018-12-09T21:02:39.174Z,1.90
2018-12-09T21:05:07.844Z,1.60
2018-12-09T21:07:36.393Z,1.30
2018-12-09T21:10:06.479Z,2.33
2018-12-09T21:12:35.012Z,3.40
2018-12-09T21:15:03.566Z,1.70
2018-12-09T21:17:32.130Z,1.83
2018-12-09T21:20:00.801Z,1.60
2018-12-09T21:22:29.345Z,2.07
2018-12-09T21:24:57.878Z,1.53
2018-12-09T21:27:26.439Z,1.47
2018-12-09T21:29:54.990Z,1.87
2018-12-09T21:32:23.550Z,2.10
2018-12-09T21:34:52.397Z,1.53
2018-12-09T21:37:20.966Z,2.00
2018-12-09T21:39:49.506Z,1.67
2018-12-09T21:42:18.058Z,2.90
2018-12-09T21:44:46.599Z,2.23
2018-12-09T21:47:15.186Z,3.23
2018-12-09T21:49:43.738Z,3.37
2018-12-09T21:52:12.293Z,3.97
2018-12-09T21:54:40.835Z,2.70
2018-12-09T21:57:09.351Z,2.60
2018-12-09T21:59:37.901Z,2.57
2018-12-09T22:02:06.451Z,2.43
2018-12-09T22:04:34.970Z,2.57
2018-12-09T22:07:03.475Z,2.43
2018-12-09T22:09:32.030Z,1.93
2018-12-09T22:12:00.577Z,2.20
2018-12-09T22:14:29.326Z,2.10
2018-12-09T22:16:57.945Z,1.97
2018-12-09T22:19:26.793Z,2.37
2018-12-09T22:21:55.334Z,1.70
2018-12-09T22:24:23.928Z,1.97
2018-12-09T22:26:52.446Z,2.13
2018-12-09T22:29:20.971Z,2.20
2018-12-09T22:31:49.542Z,2.10
2018-12-09T22:34:18.112Z,2.07
2018-12-09T22:36:46.725Z,2.20
2018-12-09T22:39:15.317Z,2.23
2018-12-09T22:41:43.884Z,2.40
2018-12-09T22:44:12.545Z,2.50
2018-12-09T22:46:41.222Z,3.03
2018-12-09T22:49:09.790Z,2.60
2018-12-09T22:51:38.355Z,2.50
2018-12-09T22:54:06.877Z,2.70
2018-12-09T22:56:35.433Z,2.50
2018-12-09T22:59:03.984Z,2.80
2018-12-09T23:01:32.682Z,2.83
2018-12-09T23:04:01.222Z,2.53
2018-12-09T23:06:29.793Z,2.67
2018-12-09T23:08:58.335Z,2.87
2018-12-09T23:11:26.858Z,2.47
2018-12-09T23:13:56.258Z,2.33
2018-12-09T23:16:24.794Z,2.27
2018-12-09T23:18:53.599Z,2.23
2018-12-09T23:21:22.150Z,2.00
2018-12-09T23:23:50.682Z,2.10
2018-12-09T23:26:19.214Z,2.30
2018-12-09T23:28:47.771Z,2.27
2018-12-09T23:31:16.622Z,2.83
2018-12-09T23:33:45.133Z,2.60
2018-12-09T23:36:13.683Z,2.43
2018-12-09T23:38:42.267Z,2.60
2018-12-09T23:41:10.781Z,2.60
2018-12-09T23:43:39.312Z,3.10
2018-12-09T23:46:07.986Z,3.20
2018-12-09T23:48:42.865Z,2.93
2018-12-09T23:51:11.442Z,2.77
2018-12-09T23:53:40.000Z,2.63
2018-12-09T23:56:08.535Z,2.20
2018-12-09T23:58:37.066Z,2.57
